Ride Results

Kentish (17-03-2017)
Ride distance: 80.0 km

Outcomes - Kentish (17-03-2017)
Division No. of Entries Retired / DNE Completed Withdrawn Ineligible V/O Percentage Completed
HW 3 - 0 - - 3 0.00%
MW 15 - 13 - - 2 86.67%
LW 14 - 12 1 - 1 85.71%
JN 11 - 7 - - 4 63.64%
Totals 43 - 32 1 - 10 74.42%
Results - Kentish (17-03-2017)
No. Rider Horse Place Time Leg Speeds Total
Km/Hr
H/R bpm
Heavyweight
122 Ged Nicklason Red Foo Heart Rate L2 0:00:00 12.4, 12.3 - 30, 51, 68 (Avg:59)
326 Tamieka Bennett Ruby Lame L1 0:00:00 12.0 - 30, 54 (Avg:54)
194 Robby Walsh Sno- Flake Lame L1 0:00:00 11.2 - 45, 51 (Avg:51)
Middleweight
80 Noel Lockhart Magic Prediction 1 (BC) 5:52:00 14.3, 12.9 13.64 28, 42, 48 (Avg:45)
57 Tania Jago Undurra Max 2 6:08:00 13.9, 12.2 13.04 40, 48, 54 (Avg:51)
179 Debbie Grull Lauralyn Notorious 3 6:11:00 13.5, 12.3 12.94 39, 39, 47 (Avg:43)
114 Tara Nicklason Cruze GT 4 6:27:01 12.4, 12.3 12.40 44, 51, 60 (Avg:55)
182 Fran Jordan Diablo 5 6:50:00 12.6, 10.9 11.71 37, 43, 48 (Avg:45)
280 Emily Wall Undurra Shahkhan 6 6:52:00 13.2, 10.3 11.65 30, 48, 50 (Avg:49)
171 Craig Wall Undurra Braveheart 7 6:52:01 13.2, 10.3 11.65 33, 44, 52 (Avg:48)
252 Baptiste Loiget Rollo 8 6:53:00 11.6, 11.5 11.62 44, 47, 60 (Avg:53)
314 Joanne Groenewold Lord Gerard of Seven Oaks 9 7:04:00 12.0, 10.6 11.32 34, 43, 60 (Avg:51)
88 Anthony Bloom Booma 10 7:19:00 11.7, 10.2 10.93 38, 50, 50 (Avg:50)
276 Naomi Maxwell Highland View Bill 11 8:01:00 11.6, 8.7 9.98 42, 49, 60 (Avg:54)
265 Annemaree Kelly Zulu 12 8:05:00 10.5, 9.3 9.90 32, 42, 51 (Avg:46)
180 Nicole Ford Moonya Vodka 'n' Ice 13 8:06:00 10.5, 9.3 9.88 33, 42, 48 (Avg:45)
68 Janine Parr Janarr Shimmering Surprise Lame L2 0:00:00 12.5, 11.7 - 31, 43, 47 (Avg:45)
300 Raelene Smith Splitters Creek Cypress Lame L1 0:00:00 14.3 - 34, 42 (Avg:42)
Lightweight
79 Shannon Hill Glendhu Chester 1 (BC) 5:52:00 14.3, 12.9 13.64 35, 46, 50 (Avg:48)
132 Kirsty Sward Neilly KP Samson 2 6:11:00 13.5, 12.3 12.94 33, 44, 48 (Avg:46)
228 Melissa Kelly Melody 3 6:27:00 13.5, 11.4 12.40 33, 47, 59 (Avg:53)
90 Angela Hawks Karabah Tully 4 6:30:00 11.6, 13.0 12.31 35, 44, 43 (Avg:43)
125 Brooke Brown-Cordell BBP Pocahontus 5 6:48:00 11.8, 11.7 11.76 35, 46, 49 (Avg:47)
154 Sarah Parker Aqaba Beesting 5 6:48:00 11.8, 11.7 11.76 32, 42, 43 (Avg:42)
157 Lynette Walker Glanheathyn Joey 7 6:50:00 12.6, 10.9 11.71 38, 48, 58 (Avg:53)
12 Anita Hutchins Warrawee Armanee 8 7:08:00 11.4, 11.0 11.21 36, 45, 46 (Avg:45)
186 Amelia Napier Kalody Park Chase 9 7:23:00 11.2, 10.4 10.84 33, 44, 48 (Avg:46)
46 Yuki Nishikido Highland View Indian 10 8:01:00 11.6, 8.7 9.98 38, 49, 57 (Avg:53)
192 Indianna Humphries Pye Park Cygnet 11 8:21:00 10.1, 9.0 9.58 39, 48, 53 (Avg:50)
50 Hayley Marshall Rivergum Dream Maker 11 8:21:00 10.1, 9.0 9.58 34, 41, 41 (Avg:41)
115 Jenny Keygan Woodsong Kasanova Heart Rate L2 0:00:00 12.6, 10.9 - 37, 48, 63 (Avg:55)
225 Jane Walsh Banda Boozle Withdrawn L1 0:00:00 - - 30, 38 (Avg:38)
Junior
113 Kirstie Lockhart Razara Momentum 1 (BC) 5:52:00 14.3, 12.9 13.64 32, 43, 44 (Avg:43)
260 Laura Febey Rocky 2 6:08:00 13.9, 12.2 13.04 37, 41, 45 (Avg:43)
185 Chloe McHenry Zaddik Arten 3 6:27:03 12.6, 12.1 12.40 31, 39, 57 (Avg:48)
247 Ali Smith Lauralyn Kaw Liija 4 6:30:00 12.4, 12.1 12.31 36, 44, 50 (Avg:47)
297 Brittany Farrell Mafnod 5 6:49:00 11.7, 11.7 11.74 40, 41, 44 (Avg:42)
295 Taylor Fuller Impulse FF 6 7:08:00 11.4, 11.0 11.21 40, 45, 50 (Avg:47)
308 Ella Carter Rusleema Bint Sidu 7 8:21:00 10.1, 9.0 9.58 33, 44, 54 (Avg:49)
191 Takisha Norris Warhorse Samsara Lame L2 0:00:00 10.5, 9.3 - 43, 45, 52 (Avg:48)
66 Bella Pickering Vandieman Tyra Lame L2 0:00:00 11.7, 11.7 - 40, 42, 46 (Avg:44)
127 Jaz Hutchins Lauralyn Imari Lame L1 0:00:00 12.4 - 34, 46 (Avg:46)
47 Hannah Colbeck Samson of Glendhu Lame P/R 0:00:00 - - 37